sensor_id;sensor_type;location;lat;lon;timestamp;P1;durP1;ratioP1;P2;durP2;ratioP2
82005;SDS011;71529;47.484;19.064;2024-02-26T00:00:14;15.73;;;12.88;;
82005;SDS011;71529;47.484;19.064;2024-02-26T00:02:44;17.00;;;12.90;;
82005;SDS011;71529;47.484;19.064;2024-02-26T00:05:13;16.27;;;12.82;;
82005;SDS011;71529;47.484;19.064;2024-02-26T00:07:42;16.23;;;12.13;;
82005;SDS011;71529;47.484;19.064;2024-02-26T00:10:12;16.48;;;12.48;;
82005;SDS011;71529;47.484;19.064;2024-02-26T00:12:42;16.65;;;12.73;;
82005;SDS011;71529;47.484;19.064;2024-02-26T00:15:13;15.70;;;12.50;;
82005;SDS011;71529;47.484;19.064;2024-02-26T00:17:42;18.60;;;12.50;;
82005;SDS011;71529;47.484;19.064;2024-02-26T00:20:11;17.73;;;13.45;;
82005;SDS011;71529;47.484;19.064;2024-02-26T00:22:40;16.10;;;12.18;;
82005;SDS011;71529;47.484;19.064;2024-02-26T00:25:10;15.40;;;11.82;;
82005;SDS011;71529;47.484;19.064;2024-02-26T00:27:39;17.67;;;13.35;;
82005;SDS011;71529;47.484;19.064;2024-02-26T00:30:10;18.48;;;13.10;;
82005;SDS011;71529;47.484;19.064;2024-02-26T00:32:42;16.77;;;13.15;;
82005;SDS011;71529;47.484;19.064;2024-02-26T00:35:11;16.90;;;11.65;;
82005;SDS011;71529;47.484;19.064;2024-02-26T00:37:41;15.38;;;10.82;;
82005;SDS011;71529;47.484;19.064;2024-02-26T00:40:11;18.15;;;12.10;;
82005;SDS011;71529;47.484;19.064;2024-02-26T00:42:40;14.52;;;11.15;;
82005;SDS011;71529;47.484;19.064;2024-02-26T00:45:11;17.38;;;12.75;;
82005;SDS011;71529;47.484;19.064;2024-02-26T00:47:44;16.05;;;10.80;;
82005;SDS011;71529;47.484;19.064;2024-02-26T00:50:14;15.95;;;11.45;;
82005;SDS011;71529;47.484;19.064;2024-02-26T00:52:44;16.17;;;11.68;;
82005;SDS011;71529;47.484;19.064;2024-02-26T00:55:13;16.92;;;10.38;;
82005;SDS011;71529;47.484;19.064;2024-02-26T00:57:42;13.30;;;10.57;;
82005;SDS011;71529;47.484;19.064;2024-02-26T01:00:12;16.38;;;10.98;;
82005;SDS011;71529;47.484;19.064;2024-02-26T01:02:44;14.68;;;10.35;;
82005;SDS011;71529;47.484;19.064;2024-02-26T01:05:15;14.13;;;9.85;;
82005;SDS011;71529;47.484;19.064;2024-02-26T01:07:45;14.05;;;10.63;;
82005;SDS011;71529;47.484;19.064;2024-02-26T01:10:13;17.05;;;10.38;;
82005;SDS011;71529;47.484;19.064;2024-02-26T01:12:42;14.48;;;10.45;;
82005;SDS011;71529;47.484;19.064;2024-02-26T01:15:11;12.23;;;10.65;;
82005;SDS011;71529;47.484;19.064;2024-02-26T01:17:40;14.45;;;10.77;;
82005;SDS011;71529;47.484;19.064;2024-02-26T01:20:12;15.82;;;10.95;;
82005;SDS011;71529;47.484;19.064;2024-02-26T01:22:41;14.38;;;10.57;;
82005;SDS011;71529;47.484;19.064;2024-02-26T01:25:11;15.82;;;10.70;;
82005;SDS011;71529;47.484;19.064;2024-02-26T01:27:41;14.38;;;10.60;;
82005;SDS011;71529;47.484;19.064;2024-02-26T01:30:10;17.70;;;11.32;;
82005;SDS011;71529;47.484;19.064;2024-02-26T01:32:41;15.65;;;10.95;;
82005;SDS011;71529;47.484;19.064;2024-02-26T01:35:13;13.77;;;10.25;;
82005;SDS011;71529;47.484;19.064;2024-02-26T01:37:42;18.17;;;12.02;;
82005;SDS011;71529;47.484;19.064;2024-02-26T01:40:11;21.42;;;11.75;;
82005;SDS011;71529;47.484;19.064;2024-02-26T01:42:45;15.80;;;11.45;;
82005;SDS011;71529;47.484;19.064;2024-02-26T01:45:15;16.92;;;10.63;;
82005;SDS011;71529;47.484;19.064;2024-02-26T01:47:48;12.60;;;9.70;;
82005;SDS011;71529;47.484;19.064;2024-02-26T01:50:21;15.57;;;10.93;;
82005;SDS011;71529;47.484;19.064;2024-02-26T01:52:51;17.20;;;10.98;;
82005;SDS011;71529;47.484;19.064;2024-02-26T01:55:22;14.25;;;10.32;;
82005;SDS011;71529;47.484;19.064;2024-02-26T01:57:52;14.32;;;10.93;;
82005;SDS011;71529;47.484;19.064;2024-02-26T02:00:22;16.98;;;11.88;;
82005;SDS011;71529;47.484;19.064;2024-02-26T02:02:51;15.65;;;10.68;;
82005;SDS011;71529;47.484;19.064;2024-02-26T02:05:23;13.43;;;9.77;;
82005;SDS011;71529;47.484;19.064;2024-02-26T02:07:54;12.70;;;10.43;;
82005;SDS011;71529;47.484;19.064;2024-02-26T02:10:24;14.80;;;10.07;;
82005;SDS011;71529;47.484;19.064;2024-02-26T02:12:54;12.40;;;9.88;;
82005;SDS011;71529;47.484;19.064;2024-02-26T02:15:23;12.02;;;9.85;;
82005;SDS011;71529;47.484;19.064;2024-02-26T02:17:53;13.27;;;9.25;;
82005;SDS011;71529;47.484;19.064;2024-02-26T02:20:26;15.98;;;11.07;;
82005;SDS011;71529;47.484;19.064;2024-02-26T02:23:01;15.55;;;10.38;;
82005;SDS011;71529;47.484;19.064;2024-02-26T02:25:30;12.40;;;9.60;;
82005;SDS011;71529;47.484;19.064;2024-02-26T02:27:59;12.60;;;9.75;;
82005;SDS011;71529;47.484;19.064;2024-02-26T02:30:29;25.33;;;9.93;;
82005;SDS011;71529;47.484;19.064;2024-02-26T02:33:01;18.38;;;13.57;;
82005;SDS011;71529;47.484;19.064;2024-02-26T02:35:32;14.15;;;11.40;;
82005;SDS011;71529;47.484;19.064;2024-02-26T02:38:02;18.90;;;13.10;;
82005;SDS011;71529;47.484;19.064;2024-02-26T02:40:32;13.77;;;9.88;;
82005;SDS011;71529;47.484;19.064;2024-02-26T02:43:01;13.07;;;10.07;;
82005;SDS011;71529;47.484;19.064;2024-02-26T02:45:30;12.82;;;10.15;;
82005;SDS011;71529;47.484;19.064;2024-02-26T02:47:59;13.10;;;10.70;;
82005;SDS011;71529;47.484;19.064;2024-02-26T02:50:28;15.10;;;10.38;;
82005;SDS011;71529;47.484;19.064;2024-02-26T02:53:00;17.65;;;13.57;;
82005;SDS011;71529;47.484;19.064;2024-02-26T02:55:29;16.40;;;11.60;;
82005;SDS011;71529;47.484;19.064;2024-02-26T02:57:58;13.35;;;10.75;;
82005;SDS011;71529;47.484;19.064;2024-02-26T03:00:27;18.48;;;12.02;;
82005;SDS011;71529;47.484;19.064;2024-02-26T03:02:56;15.68;;;11.15;;
82005;SDS011;71529;47.484;19.064;2024-02-26T03:05:25;19.45;;;11.15;;
82005;SDS011;71529;47.484;19.064;2024-02-26T03:07:55;13.30;;;10.82;;
82005;SDS011;71529;47.484;19.064;2024-02-26T03:10:26;12.00;;;9.93;;
82005;SDS011;71529;47.484;19.064;2024-02-26T03:12:55;15.00;;;10.93;;
82005;SDS011;71529;47.484;19.064;2024-02-26T03:15:24;13.93;;;10.23;;
82005;SDS011;71529;47.484;19.064;2024-02-26T03:17:54;15.30;;;10.70;;
82005;SDS011;71529;47.484;19.064;2024-02-26T03:20:22;14.30;;;11.35;;
82005;SDS011;71529;47.484;19.064;2024-02-26T03:22:51;17.92;;;11.10;;
82005;SDS011;71529;47.484;19.064;2024-02-26T03:25:20;13.30;;;10.65;;
82005;SDS011;71529;47.484;19.064;2024-02-26T03:27:52;14.70;;;10.88;;
82005;SDS011;71529;47.484;19.064;2024-02-26T03:30:21;15.38;;;9.98;;
82005;SDS011;71529;47.484;19.064;2024-02-26T03:32:50;15.75;;;10.13;;
82005;SDS011;71529;47.484;19.064;2024-02-26T03:35:19;13.85;;;9.80;;
82005;SDS011;71529;47.484;19.064;2024-02-26T03:37:49;13.35;;;9.32;;
82005;SDS011;71529;47.484;19.064;2024-02-26T03:40:18;14.02;;;9.95;;
82005;SDS011;71529;47.484;19.064;2024-02-26T03:42:46;13.15;;;9.82;;
82005;SDS011;71529;47.484;19.064;2024-02-26T03:45:19;13.90;;;9.02;;
82005;SDS011;71529;47.484;19.064;2024-02-26T03:47:48;12.07;;;9.60;;
82005;SDS011;71529;47.484;19.064;2024-02-26T03:50:17;12.95;;;9.02;;
82005;SDS011;71529;47.484;19.064;2024-02-26T03:52:46;12.68;;;8.98;;
82005;SDS011;71529;47.484;19.064;2024-02-26T03:55:15;10.85;;;9.35;;
82005;SDS011;71529;47.484;19.064;2024-02-26T03:57:50;10.48;;;8.02;;
82005;SDS011;71529;47.484;19.064;2024-02-26T04:00:21;14.32;;;9.25;;
82005;SDS011;71529;47.484;19.064;2024-02-26T04:02:51;14.15;;;8.93;;
82005;SDS011;71529;47.484;19.064;2024-02-26T04:05:21;10.15;;;8.32;;
82005;SDS011;71529;47.484;19.064;2024-02-26T04:07:50;11.60;;;8.93;;
82005;SDS011;71529;47.484;19.064;2024-02-26T04:10:18;12.75;;;8.77;;
82005;SDS011;71529;47.484;19.064;2024-02-26T04:12:47;11.50;;;8.35;;
82005;SDS011;71529;47.484;19.064;2024-02-26T04:15:16;10.85;;;8.07;;
82005;SDS011;71529;47.484;19.064;2024-02-26T04:17:48;14.45;;;8.73;;
82005;SDS011;71529;47.484;19.064;2024-02-26T04:20:17;12.52;;;9.05;;
82005;SDS011;71529;47.484;19.064;2024-02-26T04:22:47;11.15;;;8.52;;
82005;SDS011;71529;47.484;19.064;2024-02-26T04:25:16;9.38;;;7.75;;
82005;SDS011;71529;47.484;19.064;2024-02-26T04:27:45;11.82;;;8.05;;
82005;SDS011;71529;47.484;19.064;2024-02-26T04:30:13;10.27;;;7.97;;
82005;SDS011;71529;47.484;19.064;2024-02-26T04:32:42;10.57;;;7.93;;
82005;SDS011;71529;47.484;19.064;2024-02-26T04:35:13;11.73;;;8.80;;
82005;SDS011;71529;47.484;19.064;2024-02-26T04:37:42;10.55;;;8.68;;
82005;SDS011;71529;47.484;19.064;2024-02-26T04:40:12;11.80;;;8.32;;
82005;SDS011;71529;47.484;19.064;2024-02-26T04:42:41;12.38;;;8.88;;
82005;SDS011;71529;47.484;19.064;2024-02-26T04:45:10;10.93;;;8.15;;
82005;SDS011;71529;47.484;19.064;2024-02-26T04:47:39;12.32;;;8.27;;
82005;SDS011;71529;47.484;19.064;2024-02-26T04:50:08;13.82;;;8.95;;
82005;SDS011;71529;47.484;19.064;2024-02-26T04:52:40;12.85;;;9.40;;
82005;SDS011;71529;47.484;19.064;2024-02-26T04:55:09;12.60;;;9.55;;
82005;SDS011;71529;47.484;19.064;2024-02-26T04:57:38;12.90;;;9.60;;
82005;SDS011;71529;47.484;19.064;2024-02-26T05:00:09;12.93;;;8.63;;
82005;SDS011;71529;47.484;19.064;2024-02-26T05:02:39;15.00;;;10.65;;
82005;SDS011;71529;47.484;19.064;2024-02-26T05:05:08;12.90;;;9.63;;
82005;SDS011;71529;47.484;19.064;2024-02-26T05:07:43;13.23;;;9.45;;
82005;SDS011;71529;47.484;19.064;2024-02-26T05:10:12;13.40;;;9.48;;
82005;SDS011;71529;47.484;19.064;2024-02-26T05:12:41;11.98;;;9.38;;
82005;SDS011;71529;47.484;19.064;2024-02-26T05:15:10;12.57;;;9.82;;
82005;SDS011;71529;47.484;19.064;2024-02-26T05:17:44;16.05;;;11.50;;
82005;SDS011;71529;47.484;19.064;2024-02-26T05:20:13;14.57;;;10.77;;
82005;SDS011;71529;47.484;19.064;2024-02-26T05:22:45;14.30;;;11.00;;
82005;SDS011;71529;47.484;19.064;2024-02-26T05:25:14;15.50;;;10.73;;
82005;SDS011;71529;47.484;19.064;2024-02-26T05:27:43;15.23;;;10.75;;
82005;SDS011;71529;47.484;19.064;2024-02-26T05:30:13;14.98;;;11.20;;
82005;SDS011;71529;47.484;19.064;2024-02-26T05:32:42;14.77;;;11.25;;
82005;SDS011;71529;47.484;19.064;2024-02-26T05:35:11;14.10;;;11.25;;
82005;SDS011;71529;47.484;19.064;2024-02-26T05:37:41;13.93;;;11.13;;
82005;SDS011;71529;47.484;19.064;2024-02-26T05:40:13;16.27;;;11.48;;
82005;SDS011;71529;47.484;19.064;2024-02-26T05:42:42;15.60;;;11.27;;
82005;SDS011;71529;47.484;19.064;2024-02-26T05:45:12;13.02;;;10.80;;
82005;SDS011;71529;47.484;19.064;2024-02-26T05:47:41;15.52;;;11.95;;
82005;SDS011;71529;47.484;19.064;2024-02-26T05:50:10;14.90;;;11.38;;
82005;SDS011;71529;47.484;19.064;2024-02-26T05:52:40;14.18;;;10.73;;
82005;SDS011;71529;47.484;19.064;2024-02-26T05:55:13;15.48;;;11.30;;
82005;SDS011;71529;47.484;19.064;2024-02-26T05:57:42;15.50;;;12.38;;
82005;SDS011;71529;47.484;19.064;2024-02-26T06:00:12;15.55;;;11.35;;
82005;SDS011;71529;47.484;19.064;2024-02-26T06:02:42;15.88;;;11.13;;
82005;SDS011;71529;47.484;19.064;2024-02-26T06:05:11;14.60;;;11.07;;
82005;SDS011;71529;47.484;19.064;2024-02-26T06:07:40;13.77;;;10.60;;
82005;SDS011;71529;47.484;19.064;2024-02-26T06:10:10;14.15;;;11.35;;
82005;SDS011;71529;47.484;19.064;2024-02-26T06:12:42;14.75;;;11.20;;
82005;SDS011;71529;47.484;19.064;2024-02-26T06:15:11;17.42;;;12.07;;
82005;SDS011;71529;47.484;19.064;2024-02-26T06:17:40;16.40;;;11.13;;
82005;SDS011;71529;47.484;19.064;2024-02-26T06:20:09;19.08;;;11.75;;
82005;SDS011;71529;47.484;19.064;2024-02-26T06:22:39;16.23;;;11.45;;
82005;SDS011;71529;47.484;19.064;2024-02-26T06:25:09;19.50;;;10.98;;
82005;SDS011;71529;47.484;19.064;2024-02-26T06:27:42;16.45;;;10.77;;
82005;SDS011;71529;47.484;19.064;2024-02-26T06:30:12;14.90;;;11.05;;
82005;SDS011;71529;47.484;19.064;2024-02-26T06:32:42;27.63;;;11.05;;
82005;SDS011;71529;47.484;19.064;2024-02-26T06:35:13;14.80;;;10.82;;
82005;SDS011;71529;47.484;19.064;2024-02-26T06:37:46;15.80;;;11.45;;
82005;SDS011;71529;47.484;19.064;2024-02-26T06:40:16;19.85;;;11.55;;
82005;SDS011;71529;47.484;19.064;2024-02-26T06:42:47;18.25;;;11.70;;
82005;SDS011;71529;47.484;19.064;2024-02-26T06:45:17;16.38;;;10.68;;
82005;SDS011;71529;47.484;19.064;2024-02-26T06:47:47;17.67;;;10.88;;
82005;SDS011;71529;47.484;19.064;2024-02-26T06:50:18;15.90;;;11.77;;
82005;SDS011;71529;47.484;19.064;2024-02-26T06:52:47;16.35;;;11.82;;
82005;SDS011;71529;47.484;19.064;2024-02-26T06:55:17;16.05;;;11.40;;
82005;SDS011;71529;47.484;19.064;2024-02-26T06:57:49;14.48;;;10.93;;
82005;SDS011;71529;47.484;19.064;2024-02-26T07:00:18;14.38;;;10.85;;
82005;SDS011;71529;47.484;19.064;2024-02-26T07:02:48;16.83;;;11.70;;
82005;SDS011;71529;47.484;19.064;2024-02-26T07:05:17;15.75;;;11.35;;
82005;SDS011;71529;47.484;19.064;2024-02-26T07:07:46;18.02;;;12.07;;
82005;SDS011;71529;47.484;19.064;2024-02-26T07:10:15;14.90;;;11.05;;
82005;SDS011;71529;47.484;19.064;2024-02-26T07:12:44;14.00;;;10.40;;
82005;SDS011;71529;47.484;19.064;2024-02-26T07:15:16;14.82;;;11.40;;
82005;SDS011;71529;47.484;19.064;2024-02-26T07:17:45;15.15;;;11.88;;
82005;SDS011;71529;47.484;19.064;2024-02-26T07:20:15;15.43;;;11.55;;
82005;SDS011;71529;47.484;19.064;2024-02-26T07:22:43;15.25;;;11.82;;
82005;SDS011;71529;47.484;19.064;2024-02-26T07:25:10;15.68;;;12.40;;
82005;SDS011;71529;47.484;19.064;2024-02-26T07:27:39;17.00;;;12.02;;
82005;SDS011;71529;47.484;19.064;2024-02-26T07:30:08;21.05;;;14.27;;
82005;SDS011;71529;47.484;19.064;2024-02-26T07:32:41;17.45;;;12.98;;
82005;SDS011;71529;47.484;19.064;2024-02-26T07:35:10;14.85;;;12.43;;
82005;SDS011;71529;47.484;19.064;2024-02-26T07:37:39;17.50;;;12.45;;
82005;SDS011;71529;47.484;19.064;2024-02-26T07:40:09;16.92;;;13.15;;
82005;SDS011;71529;47.484;19.064;2024-02-26T07:42:38;24.42;;;17.20;;
82005;SDS011;71529;47.484;19.064;2024-02-26T07:45:07;20.80;;;14.05;;
82005;SDS011;71529;47.484;19.064;2024-02-26T07:47:36;20.52;;;14.05;;
82005;SDS011;71529;47.484;19.064;2024-02-26T07:50:09;18.08;;;13.65;;
82005;SDS011;71529;47.484;19.064;2024-02-26T07:52:39;17.40;;;13.45;;
82005;SDS011;71529;47.484;19.064;2024-02-26T07:55:08;20.67;;;14.40;;
82005;SDS011;71529;47.484;19.064;2024-02-26T07:57:41;21.58;;;14.27;;
82005;SDS011;71529;47.484;19.064;2024-02-26T08:00:11;18.77;;;14.93;;
82005;SDS011;71529;47.484;19.064;2024-02-26T08:02:42;19.65;;;15.07;;
82005;SDS011;71529;47.484;19.064;2024-02-26T08:05:15;20.55;;;15.48;;
82005;SDS011;71529;47.484;19.064;2024-02-26T08:07:44;17.05;;;14.15;;
82005;SDS011;71529;47.484;19.064;2024-02-26T08:10:13;22.00;;;15.63;;
82005;SDS011;71529;47.484;19.064;2024-02-26T08:12:43;21.52;;;15.57;;
82005;SDS011;71529;47.484;19.064;2024-02-26T08:15:12;23.15;;;14.40;;
82005;SDS011;71529;47.484;19.064;2024-02-26T08:17:40;22.67;;;15.02;;
82005;SDS011;71529;47.484;19.064;2024-02-26T08:20:10;21.13;;;15.00;;
82005;SDS011;71529;47.484;19.064;2024-02-26T08:22:42;21.08;;;15.32;;
82005;SDS011;71529;47.484;19.064;2024-02-26T08:25:11;19.75;;;15.38;;
82005;SDS011;71529;47.484;19.064;2024-02-26T08:27:41;20.95;;;15.90;;
82005;SDS011;71529;47.484;19.064;2024-02-26T08:30:11;21.98;;;16.23;;
82005;SDS011;71529;47.484;19.064;2024-02-26T08:32:42;25.45;;;16.38;;
82005;SDS011;71529;47.484;19.064;2024-02-26T08:35:11;25.30;;;17.52;;
82005;SDS011;71529;47.484;19.064;2024-02-26T08:37:43;23.85;;;17.95;;
82005;SDS011;71529;47.484;19.064;2024-02-26T08:40:13;23.80;;;18.57;;
82005;SDS011;71529;47.484;19.064;2024-02-26T08:42:42;21.17;;;17.10;;
82005;SDS011;71529;47.484;19.064;2024-02-26T08:45:11;25.42;;;18.02;;
82005;SDS011;71529;47.484;19.064;2024-02-26T08:47:40;23.70;;;17.55;;
82005;SDS011;71529;47.484;19.064;2024-02-26T08:50:10;24.92;;;17.45;;
82005;SDS011;71529;47.484;19.064;2024-02-26T08:52:38;21.58;;;17.55;;
82005;SDS011;71529;47.484;19.064;2024-02-26T08:55:10;24.00;;;17.50;;
82005;SDS011;71529;47.484;19.064;2024-02-26T08:57:39;24.48;;;17.73;;
82005;SDS011;71529;47.484;19.064;2024-02-26T09:00:09;26.77;;;17.48;;
82005;SDS011;71529;47.484;19.064;2024-02-26T09:02:40;23.65;;;17.88;;
82005;SDS011;71529;47.484;19.064;2024-02-26T09:05:10;23.30;;;17.05;;
82005;SDS011;71529;47.484;19.064;2024-02-26T09:07:38;23.85;;;17.85;;
82005;SDS011;71529;47.484;19.064;2024-02-26T09:10:10;23.20;;;17.17;;
82005;SDS011;71529;47.484;19.064;2024-02-26T09:12:39;24.95;;;17.55;;
82005;SDS011;71529;47.484;19.064;2024-02-26T09:15:08;27.45;;;17.88;;
82005;SDS011;71529;47.484;19.064;2024-02-26T09:17:38;23.88;;;16.17;;
82005;SDS011;71529;47.484;19.064;2024-02-26T09:20:07;24.58;;;18.02;;
82005;SDS011;71529;47.484;19.064;2024-02-26T09:22:39;33.25;;;20.08;;
82005;SDS011;71529;47.484;19.064;2024-02-26T09:25:11;21.40;;;18.02;;
82005;SDS011;71529;47.484;19.064;2024-02-26T09:27:41;24.30;;;18.85;;
82005;SDS011;71529;47.484;19.064;2024-02-26T09:30:11;28.48;;;17.67;;
82005;SDS011;71529;47.484;19.064;2024-02-26T09:32:45;26.80;;;18.02;;
82005;SDS011;71529;47.484;19.064;2024-02-26T09:35:18;23.63;;;17.48;;
82005;SDS011;71529;47.484;19.064;2024-02-26T09:37:48;23.40;;;18.23;;
82005;SDS011;71529;47.484;19.064;2024-02-26T09:40:20;22.00;;;16.63;;
82005;SDS011;71529;47.484;19.064;2024-02-26T09:42:49;24.27;;;17.02;;
82005;SDS011;71529;47.484;19.064;2024-02-26T09:45:25;24.40;;;16.95;;
82005;SDS011;71529;47.484;19.064;2024-02-26T09:47:57;22.23;;;17.55;;
82005;SDS011;71529;47.484;19.064;2024-02-26T09:50:25;23.58;;;16.42;;
82005;SDS011;71529;47.484;19.064;2024-02-26T09:52:55;18.70;;;15.73;;
82005;SDS011;71529;47.484;19.064;2024-02-26T09:55:30;22.98;;;16.73;;
82005;SDS011;71529;47.484;19.064;2024-02-26T09:58:00;26.40;;;17.60;;
82005;SDS011;71529;47.484;19.064;2024-02-26T10:00:30;20.30;;;17.08;;
82005;SDS011;71529;47.484;19.064;2024-02-26T10:03:02;20.25;;;17.38;;
82005;SDS011;71529;47.484;19.064;2024-02-26T10:05:33;23.73;;;17.42;;
82005;SDS011;71529;47.484;19.064;2024-02-26T10:08:02;23.50;;;17.17;;
82005;SDS011;71529;47.484;19.064;2024-02-26T10:10:36;23.13;;;17.38;;
82005;SDS011;71529;47.484;19.064;2024-02-26T10:13:05;22.45;;;16.92;;
82005;SDS011;71529;47.484;19.064;2024-02-26T10:15:37;22.08;;;16.77;;
82005;SDS011;71529;47.484;19.064;2024-02-26T10:18:06;27.70;;;17.40;;
82005;SDS011;71529;47.484;19.064;2024-02-26T10:20:35;21.60;;;17.10;;
82005;SDS011;71529;47.484;19.064;2024-02-26T10:23:04;20.55;;;16.77;;
82005;SDS011;71529;47.484;19.064;2024-02-26T10:25:36;19.40;;;15.95;;
82005;SDS011;71529;47.484;19.064;2024-02-26T10:28:05;20.58;;;16.27;;
82005;SDS011;71529;47.484;19.064;2024-02-26T10:30:36;24.77;;;19.30;;
82005;SDS011;71529;47.484;19.064;2024-02-26T10:33:05;23.92;;;16.98;;
82005;SDS011;71529;47.484;19.064;2024-02-26T10:35:36;26.08;;;17.45;;
82005;SDS011;71529;47.484;19.064;2024-02-26T10:38:06;27.77;;;17.23;;
82005;SDS011;71529;47.484;19.064;2024-02-26T10:40:38;22.30;;;15.63;;
82005;SDS011;71529;47.484;19.064;2024-02-26T10:43:07;23.52;;;17.33;;
82005;SDS011;71529;47.484;19.064;2024-02-26T10:45:33;19.90;;;15.20;;
82005;SDS011;71529;47.484;19.064;2024-02-26T10:48:03;19.23;;;15.00;;
82005;SDS011;71529;47.484;19.064;2024-02-26T10:50:33;22.63;;;15.35;;
82005;SDS011;71529;47.484;19.064;2024-02-26T10:53:02;18.80;;;14.95;;
82005;SDS011;71529;47.484;19.064;2024-02-26T10:55:33;18.45;;;15.48;;
82005;SDS011;71529;47.484;19.064;2024-02-26T10:58:06;21.50;;;15.30;;
82005;SDS011;71529;47.484;19.064;2024-02-26T11:00:38;25.38;;;16.75;;
82005;SDS011;71529;47.484;19.064;2024-02-26T11:03:08;18.23;;;14.10;;
82005;SDS011;71529;47.484;19.064;2024-02-26T11:05:39;21.45;;;14.80;;
82005;SDS011;71529;47.484;19.064;2024-02-26T11:08:09;21.48;;;15.18;;
82005;SDS011;71529;47.484;19.064;2024-02-26T11:10:40;23.70;;;14.80;;
82005;SDS011;71529;47.484;19.064;2024-02-26T11:13:13;18.75;;;15.63;;
82005;SDS011;71529;47.484;19.064;2024-02-26T11:15:44;17.50;;;14.38;;
82005;SDS011;71529;47.484;19.064;2024-02-26T11:18:15;20.75;;;15.07;;
82005;SDS011;71529;47.484;19.064;2024-02-26T11:20:41;21.58;;;15.40;;
82005;SDS011;71529;47.484;19.064;2024-02-26T11:23:11;20.40;;;14.88;;
82005;SDS011;71529;47.484;19.064;2024-02-26T11:25:41;17.85;;;13.20;;
82005;SDS011;71529;47.484;19.064;2024-02-26T11:28:14;17.98;;;13.90;;
82005;SDS011;71529;47.484;19.064;2024-02-26T11:30:46;22.10;;;15.20;;
82005;SDS011;71529;47.484;19.064;2024-02-26T11:33:17;18.77;;;13.65;;
82005;SDS011;71529;47.484;19.064;2024-02-26T11:35:48;17.17;;;14.00;;
82005;SDS011;71529;47.484;19.064;2024-02-26T11:38:17;27.88;;;21.30;;
82005;SDS011;71529;47.484;19.064;2024-02-26T11:40:49;20.33;;;14.25;;
82005;SDS011;71529;47.484;19.064;2024-02-26T11:43:25;18.92;;;13.00;;
82005;SDS011;71529;47.484;19.064;2024-02-26T11:46:24;15.55;;;12.73;;
82005;SDS011;71529;47.484;19.064;2024-02-26T11:48:56;16.38;;;12.45;;
82005;SDS011;71529;47.484;19.064;2024-02-26T11:51:27;21.48;;;12.60;;
82005;SDS011;71529;47.484;19.064;2024-02-26T11:54:00;13.90;;;11.65;;
82005;SDS011;71529;47.484;19.064;2024-02-26T11:56:29;16.83;;;12.77;;
82005;SDS011;71529;47.484;19.064;2024-02-26T11:59:09;15.27;;;11.80;;
82005;SDS011;71529;47.484;19.064;2024-02-26T12:01:39;14.63;;;11.75;;
82005;SDS011;71529;47.484;19.064;2024-02-26T12:04:08;15.77;;;12.02;;
82005;SDS011;71529;47.484;19.064;2024-02-26T12:06:45;14.43;;;10.57;;
82005;SDS011;71529;47.484;19.064;2024-02-26T12:12:04;16.55;;;11.93;;
82005;SDS011;71529;47.484;19.064;2024-02-26T12:14:36;17.40;;;12.52;;
82005;SDS011;71529;47.484;19.064;2024-02-26T12:17:06;14.52;;;10.73;;
82005;SDS011;71529;47.484;19.064;2024-02-26T12:19:36;13.30;;;10.30;;
82005;SDS011;71529;47.484;19.064;2024-02-26T12:22:06;13.50;;;9.13;;
82005;SDS011;71529;47.484;19.064;2024-02-26T12:24:36;12.25;;;9.80;;
82005;SDS011;71529;47.484;19.064;2024-02-26T12:27:06;10.95;;;7.95;;
82005;SDS011;71529;47.484;19.064;2024-02-26T12:29:37;11.73;;;7.63;;
82005;SDS011;71529;47.484;19.064;2024-02-26T12:32:06;11.10;;;8.55;;
82005;SDS011;71529;47.484;19.064;2024-02-26T12:34:36;11.05;;;6.90;;
82005;SDS011;71529;47.484;19.064;2024-02-26T12:37:05;11.52;;;7.38;;
82005;SDS011;71529;47.484;19.064;2024-02-26T12:39:36;11.45;;;9.48;;
82005;SDS011;71529;47.484;19.064;2024-02-26T12:42:05;12.23;;;8.73;;
82005;SDS011;71529;47.484;19.064;2024-02-26T12:44:37;10.52;;;8.40;;
82005;SDS011;71529;47.484;19.064;2024-02-26T12:47:06;13.57;;;8.50;;
82005;SDS011;71529;47.484;19.064;2024-02-26T12:49:36;12.90;;;9.63;;
82005;SDS011;71529;47.484;19.064;2024-02-26T12:52:05;10.88;;;8.23;;
82005;SDS011;71529;47.484;19.064;2024-02-26T12:54:35;13.23;;;8.63;;
82005;SDS011;71529;47.484;19.064;2024-02-26T12:57:05;8.70;;;7.57;;
82005;SDS011;71529;47.484;19.064;2024-02-26T12:59:37;8.88;;;7.70;;
82005;SDS011;71529;47.484;19.064;2024-02-26T13:02:07;8.55;;;7.45;;
82005;SDS011;71529;47.484;19.064;2024-02-26T13:04:37;12.05;;;8.02;;
82005;SDS011;71529;47.484;19.064;2024-02-26T13:07:07;10.73;;;7.72;;
82005;SDS011;71529;47.484;19.064;2024-02-26T13:09:36;9.85;;;8.05;;
82005;SDS011;71529;47.484;19.064;2024-02-26T13:12:06;10.25;;;9.13;;
82005;SDS011;71529;47.484;19.064;2024-02-26T13:14:38;14.98;;;9.68;;
82005;SDS011;71529;47.484;19.064;2024-02-26T13:17:07;15.80;;;9.38;;
82005;SDS011;71529;47.484;19.064;2024-02-26T13:19:37;10.95;;;8.73;;
82005;SDS011;71529;47.484;19.064;2024-02-26T13:22:06;14.10;;;8.25;;
82005;SDS011;71529;47.484;19.064;2024-02-26T13:24:35;12.18;;;8.32;;
82005;SDS011;71529;47.484;19.064;2024-02-26T13:27:05;11.82;;;6.85;;
82005;SDS011;71529;47.484;19.064;2024-02-26T13:29:33;17.02;;;12.20;;
82005;SDS011;71529;47.484;19.064;2024-02-26T13:32:05;12.50;;;8.77;;
82005;SDS011;71529;47.484;19.064;2024-02-26T13:34:35;12.35;;;10.48;;
82005;SDS011;71529;47.484;19.064;2024-02-26T13:37:04;13.73;;;9.18;;
82005;SDS011;71529;47.484;19.064;2024-02-26T13:39:34;12.30;;;7.90;;
82005;SDS011;71529;47.484;19.064;2024-02-26T13:42:04;10.68;;;7.78;;
82005;SDS011;71529;47.484;19.064;2024-02-26T13:44:33;12.23;;;7.85;;
82005;SDS011;71529;47.484;19.064;2024-02-26T13:47:07;10.73;;;6.93;;
82005;SDS011;71529;47.484;19.064;2024-02-26T13:49:36;8.70;;;6.18;;
82005;SDS011;71529;47.484;19.064;2024-02-26T13:52:05;9.38;;;7.28;;
82005;SDS011;71529;47.484;19.064;2024-02-26T13:54:34;8.30;;;6.35;;
82005;SDS011;71529;47.484;19.064;2024-02-26T13:57:04;9.05;;;5.78;;
82005;SDS011;71529;47.484;19.064;2024-02-26T13:59:34;16.05;;;7.43;;
82005;SDS011;71529;47.484;19.064;2024-02-26T14:02:03;7.78;;;5.80;;
82005;SDS011;71529;47.484;19.064;2024-02-26T14:04:34;7.10;;;6.25;;
82005;SDS011;71529;47.484;19.064;2024-02-26T14:07:03;6.85;;;5.32;;
82005;SDS011;71529;47.484;19.064;2024-02-26T14:09:33;8.57;;;6.25;;
82005;SDS011;71529;47.484;19.064;2024-02-26T14:12:02;8.10;;;6.38;;
82005;SDS011;71529;47.484;19.064;2024-02-26T14:14:32;8.55;;;6.78;;
82005;SDS011;71529;47.484;19.064;2024-02-26T14:17:04;8.82;;;6.35;;
82005;SDS011;71529;47.484;19.064;2024-02-26T14:19:36;9.52;;;6.93;;
82005;SDS011;71529;47.484;19.064;2024-02-26T14:22:10;13.18;;;7.07;;
82005;SDS011;71529;47.484;19.064;2024-02-26T14:24:41;8.90;;;6.82;;
82005;SDS011;71529;47.484;19.064;2024-02-26T14:27:10;13.32;;;7.53;;
82005;SDS011;71529;47.484;19.064;2024-02-26T14:29:42;9.40;;;7.35;;
82005;SDS011;71529;47.484;19.064;2024-02-26T14:32:12;11.23;;;8.18;;